Terminal Aerodrome Forecast
Issued by NWS Dallas/Fort Worth, TX

Home | Current Version | Previous Version | Text Only | Print | Product List | Glossary On
Versions: 1 2 3 4 5 6 7 8 9 10 11 12 13 14 15 16 17 18 19 20 21 22 23 24 25 26 27 28 29
693
FTUS44 KFWD 270530
TAFDFW
TAF
KDFW 270530Z 2706/2812 12005KT P6SM SCT015 BKN023
     FM270900 13009KT 3SM -DZ BR OVC008
     FM271700 21014KT P6SM BKN015
     FM272000 19014KT P6SM SCT015 OVC050
     FM272200 18012KT P6SM SCT050=

USA.gov is the U.S. government's official web portal to all federal, state and local government web resources and services.